createdAt,value
2022-10-15T00:01:57.317Z,4.78
2022-10-15T00:04:30.080Z,4.70
2022-10-15T00:06:57.128Z,5.65
2022-10-15T00:09:24.423Z,5.45
2022-10-15T00:11:51.443Z,4.80
2022-10-15T00:14:26.827Z,4.63
2022-10-15T00:16:55.015Z,4.53
2022-10-15T00:19:21.815Z,4.60
2022-10-15T00:21:48.697Z,4.43
2022-10-15T00:24:15.479Z,5.45
2022-10-15T00:26:42.263Z,5.10
2022-10-15T00:29:09.243Z,4.80
2022-10-15T00:31:36.057Z,4.72
2022-10-15T00:34:03.260Z,4.47
2022-10-15T00:36:32.907Z,4.80
2022-10-15T00:39:00.102Z,4.13
2022-10-15T00:41:40.442Z,4.55
2022-10-15T00:44:22.526Z,3.60
2022-10-15T00:46:56.551Z,4.88
2022-10-15T00:49:32.818Z,4.35
2022-10-15T00:52:10.681Z,4.55
2022-10-15T00:54:44.781Z,4.40
2022-10-15T00:57:12.539Z,3.70
2022-10-15T00:59:43.149Z,3.38
2022-10-15T01:02:11.604Z,3.90
2022-10-15T01:04:41.352Z,3.85
2022-10-15T01:07:08.610Z,3.05
2022-10-15T01:09:35.626Z,3.35
2022-10-15T01:12:04.262Z,3.30
2022-10-15T01:14:44.597Z,3.22
2022-10-15T01:17:20.407Z,3.45
2022-10-15T01:20:16.342Z,3.13
2022-10-15T01:22:54.688Z,3.53
2022-10-15T01:25:27.246Z,2.88
2022-10-15T01:28:08.983Z,3.10
2022-10-15T01:30:41.780Z,3.15
2022-10-15T01:33:32.095Z,3.00
2022-10-15T01:36:04.097Z,2.78
2022-10-15T01:38:46.307Z,2.78
2022-10-15T01:41:12.974Z,2.53
2022-10-15T01:44:02.579Z,2.58
2022-10-15T01:47:01.261Z,2.60
2022-10-15T01:49:33.092Z,2.58
2022-10-15T01:52:03.934Z,2.20
2022-10-15T01:54:31.243Z,2.40
2022-10-15T01:56:59.765Z,2.13
2022-10-15T01:59:29.998Z,2.00
2022-10-15T02:01:58.091Z,2.42
2022-10-15T02:04:30.377Z,2.33
2022-10-15T02:07:11.655Z,2.47
2022-10-15T02:09:55.243Z,2.00
2022-10-15T02:12:46.045Z,2.25
2022-10-15T02:15:53.598Z,2.10
2022-10-15T02:18:49.382Z,2.05
2022-10-15T02:21:41.271Z,2.20
2022-10-15T02:24:11.048Z,1.60
2022-10-15T02:26:40.158Z,2.10
2022-10-15T02:29:13.759Z,1.80
2022-10-15T02:31:43.704Z,1.90
2022-10-15T02:34:15.663Z,1.70
2022-10-15T02:36:44.515Z,1.98
2022-10-15T02:39:14.984Z,1.85
2022-10-15T02:41:42.250Z,2.20
2022-10-15T02:44:08.989Z,2.00
2022-10-15T02:46:35.756Z,1.65
2022-10-15T02:49:02.484Z,1.60
2022-10-15T02:51:32.870Z,1.55
2022-10-15T02:54:01.099Z,1.48
2022-10-15T02:56:27.932Z,1.10
2022-10-15T02:58:54.698Z,1.20
2022-10-15T03:01:22.106Z,1.63
2022-10-15T03:03:49.100Z,1.20
2022-10-15T03:06:15.896Z,1.10
2022-10-15T03:08:43.085Z,0.98
2022-10-15T03:11:10.144Z,0.93
2022-10-15T03:13:38.138Z,0.95
2022-10-15T03:16:06.647Z,1.00
2022-10-15T03:18:36.797Z,1.20
2022-10-15T03:21:06.631Z,0.90
2022-10-15T03:26:00.173Z,0.93
2022-10-15T03:28:27.004Z,0.80
2022-10-15T03:30:57.046Z,1.10
2022-10-15T03:33:25.156Z,1.02
2022-10-15T03:35:52.851Z,0.98
2022-10-15T03:38:20.013Z,1.10
2022-10-15T03:40:47.230Z,1.00
2022-10-15T03:43:13.991Z,0.80
2022-10-15T03:45:40.824Z,0.90
2022-10-15T03:48:07.615Z,1.00
2022-10-15T03:50:34.732Z,0.90
2022-10-15T03:53:06.003Z,0.95
2022-10-15T03:55:33.022Z,0.90
2022-10-15T03:57:59.875Z,0.88
2022-10-15T04:00:26.768Z,0.98
2022-10-15T04:02:53.533Z,0.90
2022-10-15T04:05:20.593Z,0.80
2022-10-15T04:07:47.331Z,0.88
2022-10-15T04:10:14.305Z,0.80
2022-10-15T04:12:41.088Z,0.80
2022-10-15T04:15:08.298Z,0.90
2022-10-15T04:17:35.024Z,0.98
2022-10-15T04:20:01.820Z,0.98
2022-10-15T04:22:28.576Z,0.90
2022-10-15T04:24:55.313Z,1.02
2022-10-15T04:27:22.040Z,0.80
2022-10-15T04:29:49.371Z,1.00
2022-10-15T04:32:16.804Z,0.82
2022-10-15T04:34:45.661Z,0.90
2022-10-15T04:37:12.438Z,0.80
2022-10-15T04:39:39.176Z,0.85
2022-10-15T04:42:06.026Z,1.00
2022-10-15T04:44:32.808Z,0.73
2022-10-15T04:46:59.622Z,1.00
2022-10-15T04:49:26.693Z,1.70
2022-10-15T04:51:53.630Z,1.58
2022-10-15T04:54:20.452Z,2.75
2022-10-15T04:56:47.223Z,4.22
2022-10-15T04:59:13.966Z,3.70
2022-10-15T05:01:40.704Z,1.30
2022-10-15T05:04:07.503Z,1.58
2022-10-15T05:06:34.872Z,1.40
2022-10-15T05:09:02.271Z,1.50
2022-10-15T05:11:29.440Z,1.23
2022-10-15T05:13:57.509Z,1.30
2022-10-15T05:16:29.359Z,2.50
2022-10-15T05:19:01.640Z,1.70
2022-10-15T05:21:29.417Z,1.08
2022-10-15T05:23:56.301Z,1.38
2022-10-15T05:26:25.172Z,0.88
2022-10-15T05:28:52.797Z,0.90
2022-10-15T05:31:22.012Z,1.30
2022-10-15T05:33:50.497Z,0.90
2022-10-15T05:36:22.248Z,1.98
2022-10-15T05:38:54.583Z,1.50
2022-10-15T05:41:22.137Z,1.25
2022-10-15T05:43:53.776Z,1.48
2022-10-15T05:46:21.305Z,1.20
2022-10-15T05:48:52.839Z,1.80
2022-10-15T05:51:19.871Z,1.75
2022-10-15T05:53:46.708Z,1.30
2022-10-15T05:56:14.710Z,1.70
2022-10-15T05:58:41.702Z,0.80
2022-10-15T06:01:14.858Z,0.70
2022-10-15T06:03:42.738Z,1.10
2022-10-15T06:06:18.479Z,1.30
2022-10-15T06:08:45.683Z,1.33
2022-10-15T06:11:12.659Z,1.00
2022-10-15T06:13:40.839Z,1.00
2022-10-15T06:16:08.387Z,1.20
2022-10-15T06:18:36.231Z,1.02
2022-10-15T06:21:03.117Z,1.00
2022-10-15T06:23:29.873Z,1.83
2022-10-15T06:25:56.618Z,1.45
2022-10-15T06:28:23.448Z,1.30
2022-10-15T06:30:50.253Z,1.25
2022-10-15T06:33:17.166Z,0.85
2022-10-15T06:35:44.291Z,1.02
2022-10-15T06:38:11.433Z,1.20
2022-10-15T06:40:39.686Z,1.75
2022-10-15T06:43:08.272Z,3.50
2022-10-15T06:45:41.582Z,1.25
2022-10-15T06:48:11.367Z,1.00
2022-10-15T06:50:38.884Z,0.85
2022-10-15T06:53:06.313Z,1.20
2022-10-15T06:55:41.983Z,1.40
2022-10-15T06:58:08.975Z,3.47
2022-10-15T07:03:15.311Z,2.40
2022-10-15T07:05:42.056Z,1.85
2022-10-15T07:08:16.820Z,1.55
2022-10-15T07:10:46.527Z,1.40
2022-10-15T07:13:13.370Z,1.02
2022-10-15T07:15:53.910Z,1.20
2022-10-15T07:18:20.722Z,0.90
2022-10-15T07:20:47.773Z,1.50
2022-10-15T07:23:14.564Z,1.58
2022-10-15T07:25:41.383Z,0.95
2022-10-15T07:28:08.038Z,1.75
2022-10-15T07:30:34.714Z,2.72
2022-10-15T07:33:01.407Z,1.40
2022-10-15T07:35:28.705Z,1.70
2022-10-15T07:37:55.510Z,1.20
2022-10-15T07:40:22.759Z,0.68
2022-10-15T07:42:54.266Z,1.67
2022-10-15T07:45:21.191Z,1.90
2022-10-15T07:47:47.931Z,1.35
2022-10-15T07:50:14.951Z,0.80
2022-10-15T07:52:41.927Z,0.80
2022-10-15T07:55:09.159Z,1.00
2022-10-15T07:57:36.475Z,1.00
2022-10-15T08:00:04.700Z,1.30
2022-10-15T08:02:31.453Z,2.00
2022-10-15T08:04:58.151Z,1.50
2022-10-15T08:07:24.813Z,1.08
2022-10-15T08:09:52.146Z,0.90
2022-10-15T08:12:18.845Z,2.40
2022-10-15T08:14:46.576Z,1.50
2022-10-15T08:17:13.321Z,2.60
2022-10-15T08:19:39.976Z,4.10
2022-10-15T08:22:06.728Z,1.80
2022-10-15T08:24:34.335Z,3.83
2022-10-15T08:27:01.063Z,1.80
2022-10-15T08:29:27.925Z,1.83
2022-10-15T08:31:54.596Z,1.67
2022-10-15T08:34:21.273Z,2.05
2022-10-15T08:36:47.980Z,4.35
2022-10-15T08:39:14.972Z,2.80
2022-10-15T08:41:46.866Z,1.90
2022-10-15T08:44:58.384Z,1.10
2022-10-15T08:47:36.283Z,1.17
2022-10-15T08:50:17.603Z,5.70
2022-10-15T08:52:46.016Z,1.63
2022-10-15T08:55:18.661Z,1.10
2022-10-15T08:58:05.027Z,2.15
2022-10-15T09:00:40.567Z,1.95
2022-10-15T09:03:41.054Z,1.67
2022-10-15T09:06:24.303Z,1.00
2022-10-15T09:09:02.349Z,1.33
2022-10-15T09:11:38.068Z,0.85
2022-10-15T09:14:08.653Z,0.75
2022-10-15T09:16:39.109Z,1.08
2022-10-15T09:19:18.757Z,1.17
2022-10-15T09:21:47.873Z,0.93
2022-10-15T09:24:23.623Z,1.00
2022-10-15T09:27:25.289Z,1.15
2022-10-15T09:30:06.348Z,1.23
2022-10-15T09:32:43.623Z,1.67
2022-10-15T09:35:20.466Z,1.00
2022-10-15T09:38:18.087Z,1.30
2022-10-15T09:41:05.637Z,0.90
2022-10-15T09:43:37.337Z,0.88
2022-10-15T09:46:05.362Z,0.90
2022-10-15T09:48:36.724Z,1.10
2022-10-15T09:51:13.998Z,0.90
2022-10-15T09:53:45.827Z,1.05
2022-10-15T09:56:19.594Z,0.90
2022-10-15T09:58:53.567Z,1.00
2022-10-15T10:01:27.148Z,0.93
2022-10-15T10:04:09.682Z,0.85
2022-10-15T10:06:52.232Z,1.00
2022-10-15T10:09:25.558Z,0.80
2022-10-15T10:11:55.126Z,1.00
2022-10-15T10:14:45.375Z,1.10
2022-10-15T10:17:20.768Z,1.02
2022-10-15T10:20:10.185Z,0.90
2022-10-15T10:22:50.467Z,1.00
2022-10-15T10:25:27.368Z,1.50
2022-10-15T10:27:55.599Z,0.90
2022-10-15T10:30:22.780Z,1.20
2022-10-15T10:32:59.422Z,1.10
2022-10-15T10:35:34.348Z,1.00
2022-10-15T10:38:02.192Z,1.20
2022-10-15T10:40:35.184Z,1.13
2022-10-15T10:43:34.349Z,1.00
2022-10-15T10:46:14.983Z,0.90
2022-10-15T10:48:48.715Z,0.80
2022-10-15T10:51:19.582Z,0.90
2022-10-15T10:53:55.323Z,1.13
2022-10-15T10:56:33.984Z,0.80
2022-10-15T10:59:21.167Z,1.00
2022-10-15T11:01:48.055Z,0.82
2022-10-15T11:04:24.873Z,0.82
2022-10-15T11:07:13.924Z,0.88
2022-10-15T11:10:05.275Z,0.82
2022-10-15T11:12:59.293Z,1.10
2022-10-15T11:15:38.103Z,0.80
2022-10-15T11:18:39.147Z,0.75
2022-10-15T11:21:40.506Z,0.80
2022-10-15T11:24:42.525Z,0.70
2022-10-15T11:27:28.771Z,0.80
2022-10-15T11:30:03.206Z,0.80
2022-10-15T11:33:02.242Z,0.95
2022-10-15T11:36:09.797Z,0.80
2022-10-15T11:38:46.572Z,1.00
2022-10-15T11:41:39.604Z,1.00
2022-10-15T11:44:30.116Z,0.65
2022-10-15T11:47:19.005Z,0.82
2022-10-15T11:50:07.317Z,0.90
2022-10-15T11:53:02.117Z,0.90
2022-10-15T11:55:40.831Z,1.15
2022-10-15T11:58:24.499Z,1.17
2022-10-15T12:00:55.055Z,1.30
2022-10-15T12:03:26.028Z,1.75
2022-10-15T12:05:58.802Z,0.98
2022-10-15T12:08:34.672Z,1.25
2022-10-15T12:11:32.625Z,1.50
2022-10-15T12:14:23.923Z,1.33
2022-10-15T12:17:25.738Z,1.77
2022-10-15T12:20:02.221Z,1.27
2022-10-15T12:22:34.351Z,1.35
2022-10-15T12:25:01.579Z,1.42
2022-10-15T12:27:37.774Z,2.10
2022-10-15T12:30:05.312Z,1.02
2022-10-15T12:32:43.866Z,1.02
2022-10-15T12:35:23.810Z,1.20
2022-10-15T12:37:51.186Z,0.88
2022-10-15T12:40:29.353Z,1.13
2022-10-15T12:43:00.480Z,1.40
2022-10-15T12:45:40.101Z,1.15
2022-10-15T12:48:16.433Z,1.30
2022-10-15T12:50:43.735Z,1.17
2022-10-15T12:53:33.296Z,1.50
2022-10-15T12:56:14.193Z,1.23
2022-10-15T12:58:43.904Z,1.30
2022-10-15T13:01:13.419Z,1.15
2022-10-15T13:03:49.917Z,0.93
2022-10-15T13:06:22.930Z,0.90
2022-10-15T13:09:23.424Z,1.20
2022-10-15T13:11:55.569Z,1.10
2022-10-15T13:14:25.474Z,1.00
2022-10-15T13:16:52.730Z,1.05
2022-10-15T13:19:22.561Z,1.10
2022-10-15T13:21:52.660Z,0.98
2022-10-15T13:24:23.844Z,1.00
2022-10-15T13:26:51.451Z,1.00
2022-10-15T13:29:20.875Z,1.00
2022-10-15T13:31:48.288Z,1.30
2022-10-15T13:34:27.642Z,1.10
2022-10-15T13:36:57.617Z,0.95
2022-10-15T13:42:08.831Z,1.10
2022-10-15T13:44:35.788Z,1.00
2022-10-15T13:47:03.130Z,1.30
2022-10-15T13:49:29.882Z,1.20
2022-10-15T13:51:56.898Z,1.42
2022-10-15T13:54:28.873Z,1.10
2022-10-15T13:56:58.853Z,0.90
2022-10-15T13:59:28.285Z,1.13
2022-10-15T14:02:01.382Z,1.10
2022-10-15T14:04:32.730Z,1.10
2022-10-15T14:07:02.790Z,1.20
2022-10-15T14:09:33.178Z,1.00
2022-10-15T14:12:03.184Z,0.90
2022-10-15T14:14:41.701Z,1.00
2022-10-15T14:17:21.372Z,0.90
2022-10-15T14:20:22.122Z,1.00
2022-10-15T14:22:49.210Z,1.10
2022-10-15T14:25:23.402Z,1.00
2022-10-15T14:27:50.476Z,0.90
2022-10-15T14:30:31.554Z,0.82
2022-10-15T14:32:58.350Z,1.00
2022-10-15T14:35:33.997Z,0.90
2022-10-15T14:38:25.257Z,1.00
2022-10-15T14:41:06.334Z,1.10
2022-10-15T14:43:36.734Z,1.20
2022-10-15T14:46:14.589Z,0.85
2022-10-15T14:48:43.435Z,0.82
2022-10-15T14:51:19.316Z,0.88
2022-10-15T14:53:47.571Z,1.10
2022-10-15T14:56:19.116Z,0.88
2022-10-15T14:58:56.693Z,1.10
2022-10-15T15:01:24.069Z,0.80
2022-10-15T15:03:55.810Z,0.95
2022-10-15T15:06:22.797Z,0.80
2022-10-15T15:08:49.703Z,0.80
2022-10-15T15:11:22.254Z,0.80
2022-10-15T15:13:49.910Z,0.90
2022-10-15T15:16:18.201Z,0.90
2022-10-15T15:18:46.648Z,0.90
2022-10-15T15:21:16.404Z,1.00
2022-10-15T15:23:44.322Z,0.95
2022-10-15T15:26:10.971Z,1.00
2022-10-15T15:28:37.747Z,7.60
2022-10-15T15:31:07.967Z,1.30
2022-10-15T15:33:35.224Z,1.63
2022-10-15T15:36:10.395Z,1.48
2022-10-15T15:38:37.212Z,2.25
2022-10-15T15:41:18.722Z,1.40
2022-10-15T15:43:46.466Z,1.40
2022-10-15T15:46:13.802Z,2.03
2022-10-15T15:48:40.755Z,1.70
2022-10-15T15:51:32.252Z,1.67
2022-10-15T15:53:59.477Z,1.40
2022-10-15T15:56:26.163Z,1.42
2022-10-15T15:58:53.095Z,1.15
2022-10-15T16:01:20.319Z,1.65
2022-10-15T16:03:47.236Z,2.70
2022-10-15T16:06:14.062Z,1.60
2022-10-15T16:08:40.742Z,2.10
2022-10-15T16:11:07.635Z,1.60
2022-10-15T16:13:35.085Z,2.63
2022-10-15T16:16:01.787Z,2.17
2022-10-15T16:18:28.590Z,2.40
2022-10-15T16:20:55.637Z,2.22
2022-10-15T16:23:22.451Z,2.17
2022-10-15T16:25:49.254Z,2.03
2022-10-15T16:28:15.979Z,1.40
2022-10-15T16:30:42.697Z,1.92
2022-10-15T16:33:09.445Z,2.40
2022-10-15T16:35:36.308Z,1.70
2022-10-15T16:38:02.970Z,8.30
2022-10-15T16:40:29.820Z,2.28
2022-10-15T16:42:56.510Z,2.38
2022-10-15T16:45:23.610Z,7.45
2022-10-15T16:47:50.344Z,4.30
2022-10-15T16:50:17.331Z,2.08
2022-10-15T16:52:44.007Z,2.55
2022-10-15T16:55:10.892Z,3.13
2022-10-15T16:57:37.915Z,2.60
2022-10-15T17:00:05.166Z,3.47
2022-10-15T17:02:31.873Z,3.00
2022-10-15T17:04:58.578Z,2.33
2022-10-15T17:07:25.642Z,2.15
2022-10-15T17:09:52.598Z,1.90
2022-10-15T17:12:19.364Z,1.95
2022-10-15T17:14:51.618Z,2.30
2022-10-15T17:17:18.630Z,3.47
2022-10-15T17:19:45.326Z,4.35
2022-10-15T17:22:12.103Z,3.20
2022-10-15T17:24:39.666Z,2.45
2022-10-15T17:27:06.365Z,2.30
2022-10-15T17:29:33.882Z,2.30
2022-10-15T17:32:02.099Z,2.50
2022-10-15T17:34:29.061Z,3.30
2022-10-15T17:36:56.386Z,3.10
2022-10-15T17:39:23.552Z,7.95
2022-10-15T17:41:52.030Z,6.30
2022-10-15T17:44:20.097Z,6.45
2022-10-15T17:46:46.867Z,6.45
2022-10-15T17:49:18.243Z,5.65
2022-10-15T17:51:46.129Z,5.53
2022-10-15T17:54:13.265Z,4.78
2022-10-15T17:56:40.140Z,9.50
2022-10-15T17:59:10.467Z,5.30
2022-10-15T18:01:57.148Z,2.92
2022-10-15T18:04:24.820Z,2.90
2022-10-15T18:06:51.581Z,3.83
2022-10-15T18:09:18.323Z,2.45
2022-10-15T18:11:46.565Z,3.30
2022-10-15T18:14:13.364Z,3.00
2022-10-15T18:16:40.158Z,3.20
2022-10-15T18:19:07.075Z,2.83
2022-10-15T18:21:34.067Z,2.80
2022-10-15T18:24:00.938Z,2.97
2022-10-15T18:26:27.712Z,2.65
2022-10-15T18:28:54.751Z,2.85
2022-10-15T18:31:22.817Z,2.92
2022-10-15T18:33:52.194Z,2.95
2022-10-15T18:36:25.160Z,2.83
2022-10-15T18:38:52.142Z,3.10
2022-10-15T18:41:21.419Z,3.10
2022-10-15T18:43:56.925Z,3.70
2022-10-15T18:46:24.490Z,4.75
2022-10-15T18:48:51.595Z,6.85
2022-10-15T18:51:18.473Z,6.93
2022-10-15T18:53:45.189Z,8.80
2022-10-15T18:56:13.852Z,4.72
2022-10-15T18:58:44.612Z,6.30
2022-10-15T19:01:24.853Z,7.10
2022-10-15T19:03:52.727Z,3.95
2022-10-15T19:06:21.454Z,3.22
2022-10-15T19:08:48.703Z,3.60
2022-10-15T19:11:16.143Z,3.70
2022-10-15T19:13:42.847Z,2.88
2022-10-15T19:16:09.516Z,2.80
2022-10-15T19:18:39.509Z,2.72
2022-10-15T19:21:06.686Z,2.97
2022-10-15T19:23:34.113Z,2.33
2022-10-15T19:26:01.311Z,3.53
2022-10-15T19:28:29.096Z,3.13
2022-10-15T19:31:01.079Z,2.92
2022-10-15T19:33:30.018Z,2.83
2022-10-15T19:35:56.676Z,3.33
2022-10-15T19:38:25.337Z,4.45
2022-10-15T19:40:52.739Z,3.70
2022-10-15T19:43:20.951Z,3.30
2022-10-15T19:45:48.671Z,3.70
2022-10-15T19:48:18.066Z,4.20
2022-10-15T19:50:47.242Z,9.68
2022-10-15T19:53:16.743Z,6.00
2022-10-15T19:55:44.676Z,5.63
2022-10-15T19:58:11.760Z,4.78
2022-10-15T20:00:38.427Z,4.20
2022-10-15T20:03:05.227Z,3.75
2022-10-15T20:05:32.302Z,4.60
2022-10-15T20:07:58.979Z,5.13
2022-10-15T20:10:26.401Z,6.72
2022-10-15T20:12:53.700Z,3.30
2022-10-15T20:15:20.975Z,3.17
2022-10-15T20:17:48.054Z,3.28
2022-10-15T20:20:15.075Z,3.08
2022-10-15T20:22:42.058Z,3.20
2022-10-15T20:25:09.047Z,3.15
2022-10-15T20:27:35.829Z,2.70
2022-10-15T20:30:02.774Z,3.30
2022-10-15T20:32:34.811Z,2.70
2022-10-15T20:35:03.811Z,2.97
2022-10-15T20:37:31.651Z,2.85
2022-10-15T20:40:00.007Z,3.00
2022-10-15T20:42:27.625Z,3.00
2022-10-15T20:44:54.616Z,3.10
2022-10-15T20:47:22.825Z,3.50
2022-10-15T20:49:52.442Z,2.65
2022-10-15T20:52:20.421Z,3.47
2022-10-15T20:54:47.620Z,2.80
2022-10-15T20:57:14.361Z,2.60
2022-10-15T20:59:41.078Z,4.55
2022-10-15T21:02:07.766Z,3.00
2022-10-15T21:04:34.492Z,3.05
2022-10-15T21:07:01.255Z,2.40
2022-10-15T21:09:28.031Z,2.80
2022-10-15T21:11:54.846Z,3.47
2022-10-15T21:14:21.568Z,2.33
2022-10-15T21:16:48.270Z,2.90
2022-10-15T21:19:15.148Z,2.92
2022-10-15T21:21:41.822Z,3.58
2022-10-15T21:24:08.488Z,3.15
2022-10-15T21:26:35.233Z,3.65
2022-10-15T21:29:01.949Z,3.50
2022-10-15T21:31:29.006Z,2.80
2022-10-15T21:33:55.883Z,3.13
2022-10-15T21:36:26.289Z,3.50
2022-10-15T21:38:54.314Z,3.72
2022-10-15T21:41:22.108Z,3.55
2022-10-15T21:46:16.689Z,2.30
2022-10-15T21:48:43.967Z,3.67
2022-10-15T21:51:13.624Z,2.47
2022-10-15T21:53:40.545Z,2.85
2022-10-15T21:56:08.231Z,2.80
2022-10-15T21:58:37.859Z,3.78
2022-10-15T22:01:19.667Z,4.22
2022-10-15T22:03:47.977Z,4.05
2022-10-15T22:06:15.281Z,4.50
2022-10-15T22:08:42.374Z,3.90
2022-10-15T22:11:18.377Z,4.32
2022-10-15T22:13:47.411Z,2.90
2022-10-15T22:16:15.860Z,2.85
2022-10-15T22:18:42.675Z,3.00
2022-10-15T22:21:10.669Z,3.83
2022-10-15T22:23:37.381Z,3.50
2022-10-15T22:26:04.113Z,3.55
2022-10-15T22:28:30.928Z,3.58
2022-10-15T22:31:09.423Z,3.90
2022-10-15T22:33:36.055Z,3.13
2022-10-15T22:36:07.610Z,3.60
2022-10-15T22:38:34.325Z,3.03
2022-10-15T22:41:01.748Z,3.10
2022-10-15T22:43:28.470Z,2.92
2022-10-15T22:45:59.796Z,4.72
2022-10-15T22:48:26.991Z,3.17
2022-10-15T22:50:57.898Z,3.50
2022-10-15T22:53:25.157Z,3.38
2022-10-15T22:55:59.350Z,3.58
2022-10-15T22:58:27.177Z,4.85
2022-10-15T23:00:54.034Z,3.83
2022-10-15T23:03:21.302Z,3.70
2022-10-15T23:05:55.066Z,3.40
2022-10-15T23:08:22.534Z,3.05
2022-10-15T23:10:49.435Z,3.33
2022-10-15T23:13:16.280Z,4.03
2022-10-15T23:15:42.964Z,3.20
2022-10-15T23:18:09.717Z,4.00
2022-10-15T23:20:37.981Z,2.95
2022-10-15T23:23:05.686Z,3.35
2022-10-15T23:25:39.297Z,3.28
2022-10-15T23:28:06.162Z,2.90
2022-10-15T23:30:32.908Z,3.13
2022-10-15T23:33:02.908Z,3.00
2022-10-15T23:35:29.599Z,3.10
2022-10-15T23:37:56.308Z,3.42
2022-10-15T23:40:23.046Z,3.28
2022-10-15T23:42:50.044Z,3.10
2022-10-15T23:45:16.839Z,2.90
2022-10-15T23:47:43.538Z,3.00
2022-10-15T23:50:10.318Z,3.38
2022-10-15T23:52:36.983Z,3.50
2022-10-15T23:55:03.867Z,3.45
2022-10-15T23:57:30.590Z,3.50
2022-10-15T23:59:57.446Z,3.72
